avis per tempestes more information blitzortung!


avis per Pluja more information rain snow radar


Visita la nostra xarxa de llocs de meteo:

Template documentation
and downloads

And another site



Thunderstorms From: 18-09-2018 20:00 Until: 19-09-2018 10:59 warning for: Thunderstorms Level: Yellow info button
Rain From: 18-09-2018 20:00 Until: 19-09-2018 10:59 warning for: Rain Level: Yellow info button

Pagina Historial Weather Underground text

Diari Resum Desembre 1, 2017 Unitats:  Imperial    Mètric   Tant
« Previous Dia
SegĂźent Dia »
Diari Setmana Mensual Anual Personalitzada
  Maxima: Minima: Media:
Temperatura: TemperatureC °F 1.0 °F 4.1 °F
Punt de rosada: DewpointC °F -8.7 °F -4 °F
Humitat: Humidity % 44 % 56 %
Wind Speed: WindSpeedKMH mph 0.0 mph 3.8 mph
RĂ fegues de vent: WindSpeedGustKMH mph - -
Vent:- - SSE
Pression baro: PressurehPa in 1008.0 in -
Precipitacions: 0.0 in    
Historical Graphs
 
 
Dades de taula per Desembre 1, 2017
Temps Temperatura Punt de rosada Pression baro Vent Wind Speed RĂ fegues de vent Humitat Rainfall Rate (Hourly)
TemperatureC °F DewpointC °F PressurehPa in Calm     Humidity % HourlyPrecipMM in
01:00 3.4 °F -6.6 °F 1013.8 in Calm     48 % 0.0 in
01:05 3.3 °F -6.7 °F 1013.8 in Calm     48 % 0.0 in
01:10 3.3 °F -6.4 °F 1013.8 in Calm     49 % 0.0 in
01:15 3.3 °F -6.4 °F 1013.8 in Calm     49 % 0.0 in
01:20 3.3 °F -6.4 °F 1012.8 in Calm     49 % 0.0 in
01:25 3.3 °F -6.4 °F 1012.8 in Calm     49 % 0.0 in
01:30 3.4 °F -6.1 °F 1013.8 in Calm   1.6 mph 50 % 0.0 in
01:40 3.4 °F -6.1 °F 1013.8 in North 1.6 mph   50 % 0.0 in
01:45 3.5 °F -5.7 °F 1013.8 in NW 1.6 mph 3.2 mph 51 % 0.0 in
01:50 3.7 °F -5.5 °F 1012.8 in WNW 1.6 mph 1.6 mph 51 % 0.0 in
01:55 3.8 °F -5.4 °F 1012.8 in WSW 3.2 mph 3.2 mph 51 % 0.0 in
02:00 4.0 °F -5.0 °F 1012.8 in WSW 1.6 mph 1.6 mph 52 % 0.0 in
02:05 4.1 °F -4.9 °F 1012.8 in WNW 3.2 mph 4.8 mph 52 % 0.0 in
02:10 4.4 °F -4.3 °F 1012.8 in West 3.2 mph 4.8 mph 53 % 0.0 in
02:15 4.4 °F -4.3 °F 1012.8 in West 3.2 mph 4.8 mph 53 % 0.0 in
02:20 4.3 °F -4.4 °F 1011.7 in West 3.2 mph 6.4 mph 53 % 0.0 in
02:25 4.4 °F -4.3 °F 1011.7 in NW 1.6 mph 3.2 mph 53 % 0.0 in
02:35 4.3 °F -4.2 °F 1011.7 in Calm   1.6 mph 54 % 0.0 in
02:40 4.2 °F -4.3 °F 1011.7 in ENE 3.2 mph 3.2 mph 54 % 0.0 in
02:45 4.1 °F -4.4 °F 1011.7 in Calm   3.2 mph 54 % 0.0 in
02:50 4.1 °F -4.4 °F 1011.7 in WNW 3.2 mph 3.2 mph 54 % 0.0 in
02:55 4.2 °F -4.3 °F 1011.7 in WNW 1.6 mph 1.6 mph 54 % 0.0 in
03:00 4.2 °F -4.3 °F 1011.7 in WNW 3.2 mph 3.2 mph 54 % 0.0 in
03:05 4.2 °F -4.3 °F 1011.7 in West 3.2 mph 3.2 mph 54 % 0.0 in
03:10 4.3 °F -4.2 °F 1011.7 in West 3.2 mph 3.2 mph 54 % 0.0 in
03:15 4.4 °F -3.9 °F 1011.7 in West 1.6 mph 4.8 mph 55 % 0.0 in
03:25 4.5 °F -3.8 °F 1011.7 in West 3.2 mph 3.2 mph 55 % 0.0 in
03:30 4.4 °F -3.9 °F 1010.7 in Calm   3.2 mph 55 % 0.0 in
03:35 4.4 °F -3.9 °F 1010.7 in WNW 3.2 mph 3.2 mph 55 % 0.0 in
03:40 4.4 °F -3.9 °F 1010.7 in WNW 3.2 mph 3.2 mph 55 % 0.0 in
03:45 4.4 °F -3.9 °F 1011.7 in WNW 1.6 mph 3.2 mph 55 % 0.0 in
03:50 4.4 °F -3.6 °F 1011.7 in Calm   3.2 mph 56 % 0.0 in
03:55 4.4 °F -3.6 °F 1011.7 in Calm   1.6 mph 56 % 0.0 in
04:00 4.4 °F -3.6 °F 1011.7 in Calm   3.2 mph 56 % 0.0 in
04:05 4.3 °F -3.9 °F 1011.7 in NW 1.6 mph 3.2 mph 55 % 0.0 in
04:10 4.2 °F -3.8 °F 1011.7 in Calm   1.6 mph 56 % 0.0 in
04:15 4.3 °F -3.7 °F 1011.7 in Calm   1.6 mph 56 % 0.0 in
04:20 4.5 °F -3.6 °F 1011.7 in Calm   1.6 mph 56 % 0.0 in
04:25 4.6 °F -3.2 °F 1011.7 in Calm     57 % 0.0 in
04:30 4.6 °F -3.2 °F 1010.7 in SE 1.6 mph 1.6 mph 57 % 0.0 in
04:35 4.5 °F -3.3 °F 1010.7 in East 1.6 mph 1.6 mph 57 % 0.0 in
04:40 4.4 °F -3.6 °F 1010.7 in NW 4.8 mph 4.8 mph 56 % 0.0 in
04:45 4.5 °F -3.6 °F 1010.7 in NW 4.8 mph 4.8 mph 56 % 0.0 in
04:50 4.5 °F -3.3 °F 1010.7 in NNW 4.8 mph 4.8 mph 57 % 0.0 in
04:55 4.2 °F -3.6 °F 1010.7 in NNW 3.2 mph 3.2 mph 57 % 0.0 in
05:10 4.0 °F -4.0 °F 1010.7 in North 1.6 mph 4.8 mph 56 % 0.0 in
05:15 4.1 °F -3.7 °F 1010.7 in NNW 4.8 mph 4.8 mph 57 % 0.0 in
05:20 4.1 °F -3.7 °F 1010.7 in NNW 1.6 mph 3.2 mph 57 % 0.0 in
05:25 4.2 °F -3.6 °F 1010.7 in North 1.6 mph 3.2 mph 57 % 0.0 in
05:30 4.1 °F -3.7 °F 1010.7 in NE 1.6 mph 3.2 mph 57 % 0.0 in
05:35 4.0 °F -3.8 °F 1010.7 in Calm   3.2 mph 57 % 0.0 in
05:40 4.0 °F -3.6 °F 1010.7 in ENE 1.6 mph   58 % 0.0 in
05:45 3.8 °F -3.9 °F 1010.0 in NE 1.6 mph 3.2 mph 57 % 0.0 in
05:50 3.7 °F -3.8 °F 1010.0 in ENE 3.2 mph 4.8 mph 58 % 0.0 in
06:05 3.3 °F -4.2 °F 1010.0 in ENE 1.6 mph 4.8 mph 58 % 0.0 in
06:10 3.2 °F -4.3 °F 1010.0 in NE 1.6 mph 4.8 mph 58 % 0.0 in
06:15 3.0 °F -4.7 °F 1010.0 in North 1.6 mph 1.6 mph 57 % 0.0 in
06:20 3.1 °F -4.4 °F 1010.0 in NNE 4.8 mph 6.4 mph 58 % 0.0 in
06:35 2.8 °F -4.7 °F 1010.0 in NNE 4.8 mph 6.4 mph 58 % 0.0 in
06:40 2.8 °F -4.7 °F 1010.0 in NNE 4.8 mph 9.7 mph 58 % 0.0 in
06:45 2.8 °F -4.7 °F 1010.0 in NNE 1.6 mph 9.7 mph 58 % 0.0 in
06:50 2.7 °F -4.8 °F 1010.0 in NE 3.2 mph 4.8 mph 58 % 0.0 in
07:00 2.5 °F -4.7 °F 1010.0 in NE 3.2 mph 4.8 mph 59 % 0.0 in
07:05 2.4 °F -4.8 °F 1010.0 in NE 3.2 mph 3.2 mph 59 % 0.0 in
07:10 2.4 °F -4.8 °F 1010.0 in NE 3.2 mph 4.8 mph 59 % 0.0 in
07:15 2.4 °F -4.8 °F 1010.0 in East 1.6 mph 4.8 mph 59 % 0.0 in
07:20 2.4 °F -4.8 °F 1010.0 in Calm   4.8 mph 59 % 0.0 in
07:30 2.6 °F -4.6 °F 1010.0 in West 3.2 mph 6.4 mph 59 % 0.0 in
07:35 2.6 °F -4.6 °F 1010.0 in West 4.8 mph 6.4 mph 59 % 0.0 in
07:40 3.0 °F -4.0 °F 1010.0 in WSW 1.6 mph 4.8 mph 60 % 0.0 in
07:45 3.4 °F -3.7 °F 1010.0 in WNW 4.8 mph 4.8 mph 60 % 0.0 in
07:50 3.9 °F -3.2 °F 1010.0 in WNW 1.6 mph 4.8 mph 60 % 0.0 in
07:55 3.7 °F -3.3 °F 1010.0 in WSW 3.2 mph 6.4 mph 60 % 0.0 in
08:00 3.6 °F -3.4 °F 1010.0 in West 1.6 mph 6.4 mph 60 % 0.0 in
08:05 3.5 °F -3.6 °F 1010.0 in WNW 3.2 mph 3.2 mph 60 % 0.0 in
08:10 3.6 °F -3.4 °F 1010.0 in WNW 3.2 mph 6.4 mph 60 % 0.0 in
08:15 3.6 °F -3.4 °F 1010.0 in West 3.2 mph 6.4 mph 60 % 0.0 in
08:20 3.8 °F -3.3 °F 1010.0 in West 1.6 mph 3.2 mph 60 % 0.0 in
08:25 4.0 °F -3.1 °F 1010.0 in WNW 3.2 mph 3.2 mph 60 % 0.0 in
08:30 4.2 °F -2.9 °F 1010.0 in WNW 1.6 mph 3.2 mph 60 % 0.0 in
08:35 4.3 °F -2.8 °F 1010.0 in NW 3.2 mph 4.8 mph 60 % 0.0 in
08:40 4.8 °F -2.1 °F 1010.0 in WNW 1.6 mph 4.8 mph 61 % 0.0 in
08:45 5.1 °F -1.8 °F 1010.0 in South 1.6 mph 3.2 mph 61 % 0.0 in
08:50 5.2 °F -1.9 °F 1010.0 in NW 4.8 mph 4.8 mph 60 % 0.0 in
09:00 4.7 °F -2.7 °F 1010.0 in NNE 4.8 mph 4.8 mph 59 % 0.0 in
09:05 4.5 °F -2.8 °F 1010.0 in NNE 3.2 mph 4.8 mph 59 % 0.0 in
09:10 4.5 °F -2.8 °F 1010.0 in NE 3.2 mph 3.2 mph 59 % 0.0 in
09:20 3.6 °F -6.9 °F 1013.8 in SW 1.6 mph 1.6 mph 46 % 0.0 in
09:24 4.4 °F -2.9 °F 1010.0 in NNW 3.7 mph 3.7 mph 59 % 0.0 in
09:29 4.4 °F -2.9 °F 1010.0 in NNW 3.7 mph 3.7 mph 59 % 0.0 in
09:34 4.4 °F -3.2 °F 1010.0 in ENE 7.6 mph 7.6 mph 58 % 0.0 in
09:39 4.3 °F -3.2 °F 1010.0 in ENE 5.0 mph 5.0 mph 58 % 0.0 in
09:44 4.3 °F -3.2 °F 1009.0 in NNW 3.7 mph 3.7 mph 58 % 0.0 in
09:50 4.4 °F -2.9 °F 1009.0 in ENE 7.9 mph 7.9 mph 59 % 0.0 in
09:55 4.4 °F -2.9 °F 1009.0 in East 5.6 mph 5.6 mph 59 % 0.0 in
10:00 4.4 °F -3.2 °F 1010.0 in North 5.6 mph 5.6 mph 58 % 0.0 in
10:05 4.4 °F -3.2 °F 1010.0 in East 3.7 mph 3.7 mph 58 % 0.0 in
10:10 4.4 °F -2.9 °F 1010.0 in South 2.3 mph 2.3 mph 59 % 0.0 in
10:15 4.3 °F -3.2 °F 1010.0 in NNE 7.4 mph 7.4 mph 58 % 0.0 in
10:20 4.0 °F -3.6 °F 1010.0 in NNE 9.5 mph 9.5 mph 58 % 0.0 in
10:30 4.0 °F -3.6 °F 1010.0 in NE 10.3 mph 10.3 mph 58 % 0.0 in
10:35 3.9 °F -3.6 °F 1010.0 in NNE 9.3 mph 9.3 mph 58 % 0.0 in
10:40 4.1 °F -3.2 °F 1010.0 in NNE 9.3 mph 9.3 mph 59 % 0.0 in
10:45 4.3 °F -3.0 °F 1010.7 in NE 9.3 mph 9.3 mph 59 % 0.0 in
10:50 4.5 °F -2.8 °F 1010.7 in NE 7.4 mph 7.4 mph 59 % 0.0 in
10:55 4.6 °F -2.7 °F 1010.7 in WNW 7.4 mph 7.4 mph 59 % 0.0 in
11:00 4.7 °F -2.7 °F 1010.7 in NE 5.6 mph 5.6 mph 59 % 0.0 in
11:05 4.6 °F -2.7 °F 1010.7 in NNE 13.0 mph 13.0 mph 59 % 0.0 in
11:10 4.6 °F -2.7 °F 1010.7 in NNW 3.7 mph 3.7 mph 59 % 0.0 in
11:15 4.7 °F -2.7 °F 1010.7 in ENE 6.4 mph 6.4 mph 59 % 0.0 in
11:20 4.7 °F -2.9 °F 1010.7 in NNE 7.4 mph 7.4 mph 58 % 0.0 in
11:25 4.6 °F -2.9 °F 1010.7 in ENE 9.3 mph 9.3 mph 58 % 0.0 in
11:30 4.6 °F -2.9 °F 1010.0 in ENE 7.9 mph 7.9 mph 58 % 0.0 in
11:35 4.5 °F -3.1 °F 1010.0 in ENE 9.0 mph 9.0 mph 58 % 0.0 in
11:40 4.5 °F -3.1 °F 1010.0 in NNE 7.4 mph 7.4 mph 58 % 0.0 in
11:45 4.5 °F -2.8 °F 1010.0 in East 4.2 mph 4.2 mph 59 % 0.0 in
11:50 4.4 °F -2.9 °F 1010.0 in NNE 3.7 mph 3.9 mph 59 % 0.0 in
11:55 4.5 °F -2.8 °F 1010.0 in NNE 3.7 mph 3.7 mph 59 % 0.0 in
12:00 4.6 °F -2.7 °F 1010.0 in NNW 6.9 mph 6.9 mph 59 % 0.0 in
12:05 4.7 °F -2.7 °F 1010.0 in NNE 7.4 mph 7.4 mph 59 % 0.0 in
12:10 4.9 °F -2.4 °F 1010.0 in ENE 3.9 mph 3.9 mph 59 % 0.0 in
12:15 5.0 °F -2.3 °F 1009.0 in NNE 7.4 mph 7.4 mph 59 % 0.0 in
12:25 5.1 °F -2.3 °F 1009.0 in NNE 5.3 mph 5.3 mph 59 % 0.0 in
12:30 5.3 °F -2.1 °F 1010.0 in NNE 5.3 mph 5.3 mph 59 % 0.0 in
12:35 5.2 °F -2.4 °F 1010.0 in NE 3.7 mph 3.9 mph 58 % 0.0 in
12:40 5.3 °F -2.1 °F 1010.0 in ENE 3.7 mph 3.7 mph 59 % 0.0 in
12:45 5.3 °F -2.3 °F 1010.0 in ENE 4.7 mph 4.7 mph 58 % 0.0 in
12:50 5.4 °F -2.0 °F 1010.0 in ENE 3.5 mph 3.5 mph 59 % 0.0 in
12:55 5.4 °F -2.2 °F 1010.0 in NE 7.4 mph 7.4 mph 58 % 0.0 in
13:00 5.3 °F -2.3 °F 1010.0 in NNE 7.4 mph 7.4 mph 58 % 0.0 in
13:05 5.2 °F -2.4 °F 1010.0 in NNE 7.4 mph 7.4 mph 58 % 0.0 in
13:11 5.2 °F -2.4 °F 1010.0 in ENE 7.4 mph 7.4 mph 58 % 0.0 in
13:21 5.4 °F -2.4 °F 1010.0 in East 3.7 mph 3.7 mph 57 % 0.0 in
13:26 5.5 °F -2.3 °F 1010.0 in NNE 7.4 mph 7.4 mph 57 % 0.0 in
13:31 5.5 °F -2.3 °F 1010.0 in SSW 9.3 mph 9.3 mph 57 % 0.0 in
13:36 5.5 °F -2.3 °F 1010.0 in NNE 9.3 mph 9.3 mph 57 % 0.0 in
13:41 5.5 °F -2.6 °F 1010.0 in NNE 7.4 mph 7.4 mph 56 % 0.0 in
13:46 5.5 °F -2.6 °F 1010.0 in NNW 4.7 mph 4.7 mph 56 % 0.0 in
13:51 5.5 °F -2.6 °F 1010.0 in NNW 5.6 mph 5.6 mph 56 % 0.0 in
14:01 5.7 °F -2.7 °F 1009.0 in NNW 5.6 mph 5.6 mph 55 % 0.0 in
14:06 5.8 °F -2.6 °F 1009.0 in NNW 1.9 mph   55 % 0.0 in
14:11 5.9 °F -2.4 °F 1009.0 in West 1.9 mph 1.9 mph 55 % 0.0 in
14:21 6.2 °F -2.4 °F 1008.0 in ENE 7.4 mph 7.4 mph 54 % 0.0 in
14:26 6.2 °F -2.4 °F 1008.0 in NNE 11.1 mph 11.1 mph 54 % 0.0 in
14:31 6.3 °F -2.3 °F 1008.0 in SSE 3.7 mph 4.7 mph 54 % 0.0 in
14:36 6.4 °F -2.2 °F 1008.0 in SW 7.4 mph 7.4 mph 54 % 0.0 in
14:41 6.6 °F -2.1 °F 1008.0 in NNW 5.6 mph 5.6 mph 54 % 0.0 in
14:46 6.6 °F -2.1 °F 1008.0 in NE 5.6 mph 5.6 mph 54 % 0.0 in
14:51 6.6 °F -2.1 °F 1008.0 in NW 7.4 mph 7.4 mph 54 % 0.0 in
14:56 6.8 °F -2.1 °F 1008.0 in WSW 3.7 mph 3.7 mph 53 % 0.0 in
15:01 7.0 °F -1.9 °F 1008.0 in South 5.6 mph 5.6 mph 53 % 0.0 in
15:06 7.1 °F -2.1 °F 1008.0 in ENE 9.3 mph 9.3 mph 52 % 0.0 in
15:11 7.0 °F -2.2 °F 1008.0 in NE 9.3 mph 9.3 mph 52 % 0.0 in
15:16 7.0 °F -2.2 °F 1008.0 in NNW 6.1 mph 6.1 mph 52 % 0.0 in
15:26 7.0 °F -2.2 °F 1008.0 in NE 9.3 mph 9.3 mph 52 % 0.0 in
15:31 7.1 °F -2.1 °F 1008.0 in NNE 7.2 mph 7.2 mph 52 % 0.0 in
15:36 7.4 °F -2.1 °F 1008.0 in NE 3.7 mph 3.7 mph 51 % 0.0 in
15:41 7.7 °F -1.8 °F 1008.0 in SSW 3.7 mph 3.7 mph 51 % 0.0 in
15:51 7.6 °F -1.9 °F 1008.0 in WNW 3.7 mph 3.7 mph 51 % 0.0 in
15:56 7.5 °F -2.0 °F 1008.0 in East 5.6 mph 5.6 mph 51 % 0.0 in
16:01 7.1 °F -2.4 °F 1008.0 in NNE 5.6 mph 5.6 mph 51 % 0.0 in
16:06 7.0 °F -2.7 °F 1008.0 in WSW 10.3 mph 10.3 mph 50 % 0.0 in
16:11 6.9 °F -2.8 °F 1008.0 in WNW 3.7 mph 3.7 mph 50 % 0.0 in
16:16 6.8 °F -2.9 °F 1009.0 in WNW 3.7 mph 3.7 mph 50 % 0.0 in
16:21 6.7 °F -3.0 °F 1009.0 in West 1.9 mph   50 % 0.0 in
16:26 6.6 °F -3.1 °F 1009.0 in WNW 1.9 mph 1.9 mph 50 % 0.0 in
16:31 6.5 °F -3.2 °F 1010.0 in NNE 3.7 mph 3.7 mph 50 % 0.0 in
16:36 6.4 °F -3.3 °F 1010.0 in NNE 3.7 mph 3.7 mph 50 % 0.0 in
16:41 6.3 °F -3.4 °F 1010.0 in WNW 3.7 mph 3.7 mph 50 % 0.0 in
16:46 6.3 °F -3.4 °F 1010.0 in Calm     50 % 0.0 in
17:01 5.9 °F -3.5 °F 1010.0 in ESE 7.4 mph 7.4 mph 51 % 0.0 in
17:11 5.7 °F -3.4 °F 1010.0 in ESE 9.3 mph 9.3 mph 52 % 0.0 in
17:16 5.5 °F -3.3 °F 1010.0 in ENE 9.3 mph 9.3 mph 53 % 0.0 in
17:21 5.3 °F -3.3 °F 1010.0 in ENE 5.6 mph 5.6 mph 54 % 0.0 in
17:31 5.0 °F -3.1 °F 1010.0 in East 5.6 mph 5.6 mph 56 % 0.0 in
17:36 4.8 °F -3.2 °F 1010.0 in East 3.7 mph 3.7 mph 56 % 0.0 in
17:46 4.5 °F -3.6 °F 1010.7 in NNE 9.5 mph 9.5 mph 56 % 0.0 in
17:47 4.5 °F -3.6 °F 1010.7 in ENE 9.3 mph 9.3 mph 56 % 0.0 in
18:02 4.3 °F -3.7 °F 1010.0 in ENE 5.6 mph 5.6 mph 56 % 0.0 in
18:07 4.3 °F -3.5 °F 1010.0 in NE 3.7 mph 3.7 mph 57 % 0.0 in
18:12 4.2 °F -3.6 °F 1010.0 in NNE 2.6 mph   57 % 0.0 in
18:17 4.2 °F -3.6 °F 1010.7 in Calm     57 % 0.0 in
18:22 4.1 °F -3.7 °F 1010.7 in Calm     57 % 0.0 in
18:23 4.1 °F -3.7 °F 1010.7 in Calm     57 % 0.0 in
18:28 4.0 °F -3.8 °F 1010.7 in Calm     57 % 0.0 in
18:33 3.8 °F -3.7 °F 1010.7 in NE 2.6 mph 2.6 mph 58 % 0.0 in
18:38 3.7 °F -3.8 °F 1010.7 in Calm     58 % 0.0 in
18:48 3.5 °F -4.0 °F 1011.7 in Calm     58 % 0.0 in
19:03 3.3 °F -3.7 °F 1011.7 in Calm     60 % 0.0 in
19:08 3.2 °F -3.8 °F 1011.7 in Calm     60 % 0.0 in
19:13 2.9 °F -4.3 °F 1011.7 in SW 3.7 mph 3.7 mph 59 % 0.0 in
19:29 2.7 °F -4.3 °F 1011.7 in West 3.9 mph 3.9 mph 60 % 0.0 in
19:34 2.7 °F -4.3 °F 1011.7 in Calm     60 % 0.0 in
19:35 2.7 °F -4.1 °F 1011.7 in ENE 1.9 mph   61 % 0.0 in
19:40 2.4 °F -4.4 °F 1011.7 in ENE 1.9 mph   61 % 0.0 in
19:45 2.4 °F -4.2 °F 1012.8 in East 3.7 mph 3.7 mph 62 % 0.0 in
19:50 2.4 °F -4.4 °F 1012.8 in WSW 3.7 mph 3.7 mph 61 % 0.0 in
19:55 2.5 °F -4.1 °F 1012.8 in Calm     62 % 0.0 in
20:00 2.5 °F -4.1 °F 1013.8 in Calm     62 % 0.0 in
20:08 2.3 °F -4.2 °F 1013.8 in SW 3.7 mph 3.7 mph 62 % 0.0 in
20:13 2.0 °F -4.5 °F 1013.8 in SW 1.9 mph   62 % 0.0 in
20:18 2.2 °F -4.3 °F 1012.8 in Calm     62 % 0.0 in
20:23 2.1 °F -4.4 °F 1012.8 in SW 3.7 mph 3.7 mph 62 % 0.0 in
20:28 2.0 °F -4.3 °F 1012.8 in Calm     63 % 0.0 in
20:33 2.1 °F -4.2 °F 1013.8 in Calm     63 % 0.0 in
20:38 2.1 °F -4.2 °F 1013.8 in WSW 1.9 mph 1.9 mph 63 % 0.0 in
20:43 2.4 °F -4.2 °F 1013.8 in WNW 3.7 mph 3.7 mph 62 % 0.0 in
20:48 2.3 °F -4.1 °F 1013.8 in SW 3.7 mph 3.7 mph 63 % 0.0 in
20:53 1.9 °F -4.4 °F 1013.8 in Calm     63 % 0.0 in
21:03 1.4 °F -5.1 °F 1013.8 in WSW 3.7 mph 3.9 mph 62 % 0.0 in
21:13 1.0 °F -5.5 °F 1013.8 in SW 3.7 mph 3.7 mph 62 % 0.0 in
21:18 1.0 °F -5.7 °F 1013.8 in WSW 3.7 mph 3.7 mph 61 % 0.0 in
21:28 1.3 °F -5.4 °F 1013.8 in WSW 1.9 mph 1.9 mph 61 % 0.0 in
21:33 1.3 °F -5.4 °F 1013.8 in SW 3.7 mph 3.7 mph 61 % 0.0 in
21:38 1.0 °F -5.7 °F 1013.8 in SW 3.7 mph 3.7 mph 61 % 0.0 in
21:44 1.0 °F -5.9 °F 1013.8 in West 4.2 mph 4.2 mph 60 % 0.0 in
21:49 1.5 °F -6.3 °F 1013.8 in West 6.9 mph 6.9 mph 56 % 0.0 in
22:04 1.7 °F -7.1 °F 1013.8 in ENE 1.9 mph   52 % 0.0 in
22:09 1.7 °F -7.1 °F 1013.8 in ENE 3.7 mph 3.7 mph 52 % 0.0 in
22:14 1.6 °F -7.4 °F 1013.8 in ENE 1.9 mph 1.9 mph 51 % 0.0 in
22:19 1.5 °F -7.6 °F 1013.8 in East 3.7 mph 3.7 mph 51 % 0.0 in
22:24 1.4 °F -7.7 °F 1013.8 in ENE 1.9 mph 1.9 mph 51 % 0.0 in
22:29 1.3 °F -7.7 °F 1013.8 in NNE 5.0 mph 5.0 mph 51 % 0.0 in
22:34 1.4 °F -7.9 °F 1013.8 in North 1.9 mph   50 % 0.0 in
22:45 2.1 °F -7.3 °F 1013.8 in West 5.6 mph 5.6 mph 50 % 0.0 in
22:50 2.3 °F -7.3 °F 1013.8 in SW 5.6 mph 5.6 mph 49 % 0.0 in
22:55 2.4 °F -7.2 °F 1013.8 in SW 6.1 mph 6.1 mph 49 % 0.0 in
22:59 2.5 °F -7.2 °F 1013.8 in WSW 4.7 mph 4.7 mph 49 % 0.0 in
23:05 2.5 °F -7.4 °F 1013.8 in WSW 7.4 mph 7.4 mph 48 % 0.0 in
23:10 2.5 °F -7.7 °F 1013.8 in West 3.7 mph 3.7 mph 47 % 0.0 in
23:15 2.5 °F -7.7 °F 1013.8 in West 3.7 mph 3.7 mph 47 % 0.0 in
23:19 2.6 °F -7.9 °F 1013.8 in West 3.7 mph 3.7 mph 46 % 0.0 in
23:25 2.6 °F -8.2 °F 1013.8 in Calm     45 % 0.0 in
23:30 2.5 °F -8.3 °F 1013.8 in WSW 2.6 mph 2.6 mph 45 % 0.0 in
23:35 2.4 °F -8.3 °F 1013.8 in West 1.9 mph   45 % 0.0 in
23:40 2.4 °F -8.6 °F 1013.8 in WNW 1.9 mph   44 % 0.0 in
23:45 2.3 °F -8.7 °F 1013.8 in West 4.2 mph   44 % 0.0 in
23:49 2.2 °F -8.5 °F 1013.8 in WSW 7.9 mph 7.9 mph 45 % 0.0 in
23:54 2.3 °F -8.7 °F 1013.8 in WSW 5.6 mph 5.8 mph 44 % 0.0 in
23:59 2.4 °F -8.6 °F 1013.8 in West 7.4 mph 7.4 mph 44 % 0.0 in
Meteo Sesrovires
Elogis d' Weather Underground - 1.75 mb

Guio original per  Jim McMurry - jmcmurry@mwt.net Adaptat per a la plantilla per  Wim van der Kuil - Leuven-Template.eu

Trobareu la nostra informacio del temps tambe a:

Weather Underground

AWEKAS